createdAt,value
2018-07-21T00:00:25.478Z,86.30
2018-07-21T00:02:54.275Z,86.10
2018-07-21T00:05:22.812Z,86.10
2018-07-21T00:07:54.145Z,85.90
2018-07-21T00:10:22.869Z,86.20
2018-07-21T00:12:51.429Z,85.90
2018-07-21T00:15:19.955Z,85.70
2018-07-21T00:17:49.392Z,85.40
2018-07-21T00:20:18.016Z,85.50
2018-07-21T00:22:46.551Z,85.50
2018-07-21T00:25:16.694Z,85.70
2018-07-21T00:27:45.787Z,86.70
2018-07-21T00:30:15.982Z,87.30
2018-07-21T00:32:45.829Z,87.80
2018-07-21T00:35:15.314Z,88.40
2018-07-21T00:37:44.022Z,88.70
2018-07-21T00:40:13.525Z,88.70
2018-07-21T00:42:42.378Z,88.80
2018-07-21T00:45:10.941Z,89.40
2018-07-21T00:47:40.522Z,89.60
2018-07-21T00:50:09.142Z,89.70
2018-07-21T00:52:38.250Z,89.50
2018-07-21T00:55:07.586Z,89.40
2018-07-21T00:57:36.114Z,89.20
2018-07-21T01:00:05.188Z,89.00
2018-07-21T01:02:33.747Z,88.90
2018-07-21T01:05:02.311Z,88.40
2018-07-21T01:07:31.168Z,88.50
2018-07-21T01:09:59.723Z,89.20
2018-07-21T01:12:29.404Z,89.80
2018-07-21T01:14:58.581Z,90.30
2018-07-21T01:17:28.852Z,90.40
2018-07-21T01:19:57.770Z,90.50
2018-07-21T01:22:27.029Z,90.40
2018-07-21T01:24:55.558Z,90.30
2018-07-21T01:27:24.871Z,90.20
2018-07-21T01:29:55.202Z,90.00
2018-07-21T01:32:24.874Z,89.80
2018-07-21T01:34:54.455Z,89.30
2018-07-21T01:37:24.331Z,89.20
2018-07-21T01:39:52.919Z,89.70
2018-07-21T01:42:22.839Z,88.50
2018-07-21T01:44:51.599Z,88.10
2018-07-21T01:47:21.498Z,87.80
2018-07-21T01:49:50.019Z,87.80
2018-07-21T01:52:18.671Z,87.40
2018-07-21T01:54:49.030Z,87.40
2018-07-21T01:57:17.918Z,86.70
2018-07-21T01:59:46.665Z,84.80
2018-07-21T02:02:16.029Z,85.90
2018-07-21T02:04:44.767Z,86.10
2018-07-21T02:07:15.076Z,86.30
2018-07-21T02:09:44.000Z,86.60
2018-07-21T02:12:13.483Z,86.60
2018-07-21T02:14:42.406Z,86.40
2018-07-21T02:17:11.534Z,86.10
2018-07-21T02:19:41.083Z,86.10
2018-07-21T02:22:09.681Z,85.90
2018-07-21T02:24:38.202Z,85.70
2018-07-21T02:27:06.797Z,85.50
2018-07-21T02:29:35.373Z,84.60
2018-07-21T02:32:03.950Z,84.70
2018-07-21T02:34:32.908Z,84.90
2018-07-21T02:37:03.149Z,84.60
2018-07-21T02:39:31.710Z,84.50
2018-07-21T02:42:00.241Z,84.30
2018-07-21T02:44:28.814Z,84.30
2018-07-21T02:46:57.395Z,84.20
2018-07-21T02:49:25.923Z,84.00
2018-07-21T02:51:54.521Z,84.20
2018-07-21T02:54:24.351Z,84.20
2018-07-21T02:56:52.926Z,84.00
2018-07-21T02:59:21.598Z,83.70
2018-07-21T03:01:50.149Z,83.50
2018-07-21T03:04:19.078Z,83.30
2018-07-21T03:06:49.092Z,82.90
2018-07-21T03:09:17.650Z,83.00
2018-07-21T03:11:46.504Z,82.70
2018-07-21T03:14:16.372Z,82.90
2018-07-21T03:16:44.914Z,83.10
2018-07-21T03:19:15.196Z,83.20
2018-07-21T03:24:12.674Z,82.80
2018-07-21T03:26:41.210Z,82.70
2018-07-21T03:29:09.914Z,82.20
2018-07-21T03:31:38.986Z,82.10
2018-07-21T03:34:08.115Z,82.20
2018-07-21T03:36:37.372Z,82.00
2018-07-21T03:39:09.113Z,81.70
2018-07-21T03:41:37.681Z,81.70
2018-07-21T03:44:06.307Z,81.50
2018-07-21T03:46:35.011Z,81.30
2018-07-21T03:49:03.619Z,80.90
2018-07-21T03:51:33.998Z,81.10
2018-07-21T03:54:02.915Z,81.10
2018-07-21T03:56:32.198Z,80.60
2018-07-21T03:59:00.737Z,80.40
2018-07-21T04:01:29.367Z,80.40
2018-07-21T04:03:57.935Z,80.10
2018-07-21T04:06:27.473Z,80.30
2018-07-21T04:08:56.607Z,81.00
2018-07-21T04:11:25.539Z,80.90
2018-07-21T04:13:54.072Z,81.40
2018-07-21T04:16:22.980Z,81.50
2018-07-21T04:18:52.191Z,81.50
2018-07-21T04:21:20.727Z,82.10
2018-07-21T04:23:49.288Z,81.60
2018-07-21T04:26:17.800Z,81.80
2018-07-21T04:28:46.488Z,82.10
2018-07-21T04:31:17.327Z,81.90
2018-07-21T04:33:46.222Z,81.70
2018-07-21T04:36:15.755Z,81.00
2018-07-21T04:38:45.188Z,80.50
2018-07-21T04:41:14.996Z,80.50
2018-07-21T04:43:43.534Z,80.30
2018-07-21T04:46:13.479Z,80.20
2018-07-21T04:48:42.449Z,79.90
2018-07-21T04:51:11.646Z,79.80
2018-07-21T04:53:40.786Z,79.30
2018-07-21T04:56:09.535Z,79.30
2018-07-21T04:58:38.287Z,79.50
2018-07-21T05:01:06.964Z,79.70
2018-07-21T05:03:36.172Z,79.60
2018-07-21T05:06:05.034Z,79.30
2018-07-21T05:08:34.120Z,79.70
2018-07-21T05:11:02.726Z,79.90
2018-07-21T05:13:32.298Z,79.80
2018-07-21T05:16:01.215Z,79.90
2018-07-21T05:18:29.803Z,79.90
2018-07-21T05:20:58.387Z,79.90
2018-07-21T05:23:27.040Z,79.30
2018-07-21T05:25:57.798Z,79.30
2018-07-21T05:28:26.462Z,78.90
2018-07-21T05:30:55.307Z,79.40
2018-07-21T05:33:25.886Z,79.10
2018-07-21T05:35:54.419Z,79.50
2018-07-21T05:38:22.961Z,79.20
2018-07-21T05:40:51.474Z,79.50
2018-07-21T05:43:20.415Z,79.90
2018-07-21T05:45:48.973Z,79.50
2018-07-21T05:48:17.567Z,80.30
2018-07-21T05:50:46.231Z,82.40
2018-07-21T05:53:17.092Z,82.40
2018-07-21T05:55:46.851Z,83.30
2018-07-21T05:58:15.577Z,85.10
2018-07-21T06:00:44.218Z,86.40
2018-07-21T06:03:15.677Z,86.90
2018-07-21T06:05:44.313Z,87.20
2018-07-21T06:08:12.939Z,86.20
2018-07-21T06:10:41.419Z,85.50
2018-07-21T06:13:11.471Z,88.60
2018-07-21T06:15:40.020Z,89.90
2018-07-21T06:18:09.240Z,89.80
2018-07-21T06:20:37.801Z,91.10
2018-07-21T06:23:07.174Z,91.20
2018-07-21T06:25:36.305Z,90.10
2018-07-21T06:28:04.925Z,90.50
2018-07-21T06:30:33.511Z,90.40
2018-07-21T06:33:02.075Z,91.00
2018-07-21T06:35:31.780Z,91.40
2018-07-21T06:38:01.071Z,91.70
2018-07-21T06:40:29.697Z,90.90
2018-07-21T06:42:58.286Z,91.30
2018-07-21T06:45:26.887Z,90.80
2018-07-21T06:47:55.469Z,88.80
2018-07-21T06:50:24.966Z,90.50
2018-07-21T06:52:54.494Z,88.00
2018-07-21T06:55:23.029Z,90.40
2018-07-21T06:57:51.571Z,89.50
2018-07-21T07:00:21.131Z,90.10
2018-07-21T07:02:54.359Z,90.40
2018-07-21T07:05:22.980Z,91.80
2018-07-21T07:07:52.680Z,91.50
2018-07-21T07:10:22.429Z,91.80
2018-07-21T07:12:52.589Z,91.40
2018-07-21T07:15:22.502Z,91.70
2018-07-21T07:17:54.306Z,91.90
2018-07-21T07:22:51.263Z,91.30
2018-07-21T07:25:19.939Z,91.80
2018-07-21T07:27:49.184Z,91.80
2018-07-21T07:30:17.848Z,91.20
2018-07-21T07:32:47.987Z,91.00
2018-07-21T07:35:16.593Z,90.80
2018-07-21T07:37:46.079Z,90.70
2018-07-21T07:40:15.496Z,91.20
2018-07-21T07:42:46.591Z,91.00
2018-07-21T07:45:15.193Z,91.00
2018-07-21T07:47:45.147Z,91.20
2018-07-21T07:50:14.606Z,91.30
2018-07-21T07:52:44.502Z,92.00
2018-07-21T07:55:13.471Z,91.80
2018-07-21T07:57:42.062Z,91.20
2018-07-21T08:00:11.634Z,91.10
2018-07-21T08:02:40.142Z,91.30
2018-07-21T08:05:08.770Z,90.70
2018-07-21T08:07:37.310Z,91.70
2018-07-21T08:10:06.235Z,91.90
2018-07-21T08:15:03.016Z,90.20
2018-07-21T08:17:31.587Z,90.10
2018-07-21T08:20:00.135Z,90.30
2018-07-21T08:22:28.704Z,91.20
2018-07-21T08:24:57.270Z,91.20
2018-07-21T08:27:25.847Z,91.50
2018-07-21T08:29:54.378Z,91.50
2018-07-21T08:32:22.922Z,91.60
2018-07-21T08:34:51.489Z,91.20
2018-07-21T08:37:20.351Z,91.80
2018-07-21T08:39:48.922Z,91.00
2018-07-21T08:42:17.471Z,91.10
2018-07-21T08:44:46.006Z,91.00
2018-07-21T08:49:43.575Z,91.80
2018-07-21T08:52:13.221Z,91.60
2018-07-21T08:54:41.739Z,91.40
2018-07-21T08:57:10.632Z,90.80
2018-07-21T08:59:39.233Z,91.20
2018-07-21T09:02:08.195Z,90.40
2018-07-21T09:04:36.826Z,90.30
2018-07-21T09:07:05.556Z,90.30
2018-07-21T09:09:34.122Z,90.20
2018-07-21T09:12:02.659Z,89.40
2018-07-21T09:14:31.222Z,90.50
2018-07-21T09:17:01.981Z,90.50
2018-07-21T09:19:30.528Z,88.90
2018-07-21T09:21:59.079Z,91.10
2018-07-21T09:24:27.650Z,90.20
2018-07-21T09:26:56.453Z,90.40
2018-07-21T09:29:25.025Z,90.40
2018-07-21T09:34:52.334Z,89.30
2018-07-21T09:37:20.894Z,89.40
2018-07-21T09:39:49.439Z,90.20
2018-07-21T09:42:18.033Z,89.00
2018-07-21T09:44:46.602Z,90.60
2018-07-21T09:47:15.219Z,89.20
2018-07-21T09:49:43.729Z,90.20
2018-07-21T09:52:12.306Z,91.00
2018-07-21T09:54:40.936Z,91.10
2018-07-21T09:57:10.011Z,91.40
2018-07-21T09:59:38.669Z,91.30
2018-07-21T10:02:07.312Z,90.90
2018-07-21T10:04:35.941Z,90.40
2018-07-21T10:07:04.741Z,90.10
2018-07-21T10:09:33.314Z,90.10
2018-07-21T10:12:02.766Z,90.00
2018-07-21T10:14:31.430Z,90.50
2018-07-21T10:17:00.002Z,90.60
2018-07-21T10:19:28.543Z,91.20
2018-07-21T10:21:57.144Z,91.20
2018-07-21T10:24:31.034Z,91.30
2018-07-21T10:27:04.857Z,91.30
2018-07-21T10:29:33.453Z,91.10
2018-07-21T10:32:01.983Z,92.00
2018-07-21T10:34:30.574Z,91.30
2018-07-21T10:37:00.043Z,92.00
2018-07-21T10:39:28.596Z,91.90
2018-07-21T10:41:57.512Z,91.70
2018-07-21T10:44:26.124Z,91.60
2018-07-21T10:46:54.934Z,91.80
2018-07-21T10:49:23.464Z,92.20
2018-07-21T10:51:52.108Z,91.70
2018-07-21T10:54:20.783Z,92.20
2018-07-21T10:56:49.380Z,92.50
2018-07-21T11:04:43.045Z,92.10
2018-07-21T11:07:11.620Z,92.50
2018-07-21T11:09:45.681Z,92.30
2018-07-21T11:12:14.200Z,92.70
2018-07-21T11:17:11.517Z,93.80
2018-07-21T11:19:40.325Z,91.80
2018-07-21T11:22:08.798Z,92.00
2018-07-21T11:24:37.348Z,91.70
2018-07-21T11:27:05.935Z,90.60
2018-07-21T11:29:34.479Z,91.00
2018-07-21T11:32:03.775Z,90.30
2018-07-21T11:34:32.286Z,91.00
2018-07-21T11:37:00.822Z,90.80
2018-07-21T11:39:29.362Z,91.90
2018-07-21T11:41:57.936Z,90.60
2018-07-21T11:44:26.500Z,90.90
2018-07-21T11:46:55.007Z,91.70
2018-07-21T11:49:23.805Z,90.50
2018-07-21T11:51:52.324Z,90.20
2018-07-21T11:54:20.892Z,88.40
2018-07-21T11:56:49.460Z,90.10
2018-07-21T11:59:17.957Z,88.00
2018-07-21T12:01:46.526Z,90.00
2018-07-21T12:04:14.983Z,87.60
2018-07-21T12:06:43.541Z,90.30
2018-07-21T12:09:12.237Z,88.60
2018-07-21T12:11:40.765Z,87.10
2018-07-21T12:14:09.338Z,88.80
2018-07-21T12:16:37.931Z,89.60
2018-07-21T12:19:06.462Z,89.60
2018-07-21T12:21:36.944Z,89.30
2018-07-21T12:24:06.283Z,88.60
2018-07-21T12:26:36.073Z,87.90
2018-07-21T12:29:06.586Z,87.40
2018-07-21T12:31:36.537Z,87.10
2018-07-21T12:34:05.402Z,86.40
2018-07-21T12:36:34.010Z,84.90
2018-07-21T12:39:02.573Z,84.70
2018-07-21T12:41:31.140Z,86.70
2018-07-21T12:43:59.716Z,84.40
2018-07-21T12:46:28.313Z,85.10
2018-07-21T12:48:57.077Z,85.90
2018-07-21T12:51:25.625Z,85.90
2018-07-21T12:53:54.169Z,84.90
2018-07-21T12:56:29.023Z,83.90
2018-07-21T12:58:57.592Z,86.30
2018-07-21T13:01:26.138Z,84.90
2018-07-21T13:03:54.739Z,84.50
2018-07-21T13:06:23.262Z,84.20
2018-07-21T13:08:52.030Z,82.70
2018-07-21T13:11:20.629Z,80.30
2018-07-21T13:13:49.186Z,81.80
2018-07-21T13:16:17.749Z,81.50
2018-07-21T13:18:46.378Z,80.20
2018-07-21T13:21:14.983Z,79.40
2018-07-21T13:23:43.579Z,79.60
2018-07-21T13:26:12.157Z,78.20
2018-07-21T13:28:41.096Z,79.20
2018-07-21T13:31:09.993Z,79.70
2018-07-21T13:33:39.291Z,79.10
2018-07-21T13:36:07.860Z,80.30
2018-07-21T13:38:36.591Z,79.70
2018-07-21T13:41:05.454Z,79.20
2018-07-21T13:43:34.395Z,80.90
2018-07-21T13:46:03.122Z,78.50
2018-07-21T13:48:31.658Z,77.80
2018-07-21T13:51:00.181Z,81.30
2018-07-21T13:53:28.747Z,81.40
2018-07-21T13:55:57.318Z,79.90
2018-07-21T13:58:25.887Z,76.90
2018-07-21T14:00:54.433Z,78.50
2018-07-21T14:03:22.973Z,78.90
2018-07-21T14:05:51.502Z,78.40
2018-07-21T14:08:20.247Z,75.60
2018-07-21T14:10:48.874Z,77.20
2018-07-21T14:13:17.465Z,76.80
2018-07-21T14:15:46.121Z,75.00
2018-07-21T14:18:14.675Z,71.70
2018-07-21T14:20:43.213Z,71.30
2018-07-21T14:23:11.873Z,73.10
2018-07-21T14:25:40.389Z,71.80
2018-07-21T14:28:08.919Z,71.20
2018-07-21T14:30:37.434Z,73.20
2018-07-21T14:33:06.092Z,71.50
2018-07-21T14:35:34.601Z,70.60
2018-07-21T14:38:03.174Z,72.40
2018-07-21T14:40:31.770Z,69.70
2018-07-21T14:43:00.312Z,70.10
2018-07-21T14:45:28.861Z,69.50
2018-07-21T14:47:57.427Z,70.80
2018-07-21T14:50:26.086Z,65.90
2018-07-21T14:52:54.589Z,66.00
2018-07-21T14:55:23.336Z,69.90
2018-07-21T14:57:52.215Z,68.70
2018-07-21T15:00:20.783Z,67.40
2018-07-21T15:02:49.386Z,65.30
2018-07-21T15:07:46.181Z,69.60
2018-07-21T15:10:14.797Z,70.20
2018-07-21T15:12:43.445Z,72.10
2018-07-21T15:15:12.006Z,74.60
2018-07-21T15:17:40.623Z,72.30
2018-07-21T15:20:09.312Z,72.70
2018-07-21T15:22:37.866Z,74.40
2018-07-21T15:25:06.507Z,75.70
2018-07-21T15:27:35.090Z,75.20
2018-07-21T15:30:03.855Z,75.40
2018-07-21T15:32:32.444Z,74.80
2018-07-21T15:35:01.679Z,73.80
2018-07-21T15:37:30.222Z,72.20
2018-07-21T15:39:58.826Z,71.40
2018-07-21T15:42:27.362Z,72.00
2018-07-21T15:44:55.898Z,74.60
2018-07-21T15:47:24.465Z,70.00
2018-07-21T15:49:53.291Z,73.20
2018-07-21T15:52:21.886Z,70.70
2018-07-21T15:54:50.502Z,70.90
2018-07-21T15:57:19.031Z,69.50
2018-07-21T15:59:47.571Z,69.80
2018-07-21T16:02:16.199Z,70.30
2018-07-21T16:04:44.710Z,71.30
2018-07-21T16:07:13.236Z,69.30
2018-07-21T16:09:41.917Z,67.40
2018-07-21T16:12:10.437Z,69.40
2018-07-21T16:17:07.227Z,70.70
2018-07-21T16:19:35.754Z,69.80
2018-07-21T16:22:04.269Z,70.30
2018-07-21T16:27:01.040Z,71.10
2018-07-21T16:29:29.567Z,71.50
2018-07-21T16:31:58.192Z,71.90
2018-07-21T16:34:26.715Z,70.90
2018-07-21T16:36:55.253Z,71.50
2018-07-21T16:39:23.909Z,71.50
2018-07-21T16:41:52.431Z,72.50
2018-07-21T16:44:20.994Z,73.10
2018-07-21T16:46:49.582Z,70.40
2018-07-21T16:49:18.144Z,70.50
2018-07-21T16:51:46.699Z,70.30
2018-07-21T16:54:15.322Z,70.90
2018-07-21T16:56:43.869Z,72.20
2018-07-21T16:59:12.452Z,71.90
2018-07-21T17:01:41.023Z,72.70
2018-07-21T17:04:09.598Z,71.60
2018-07-21T17:06:38.167Z,71.40
2018-07-21T17:09:08.642Z,71.90
2018-07-21T17:11:37.211Z,72.20
2018-07-21T17:14:05.887Z,72.10
2018-07-21T17:16:34.464Z,72.20
2018-07-21T17:19:03.540Z,73.70
2018-07-21T17:21:32.085Z,72.90
2018-07-21T17:24:00.712Z,73.40
2018-07-21T17:26:29.226Z,74.00
2018-07-21T17:28:57.963Z,75.00
2018-07-21T17:31:26.562Z,75.40
2018-07-21T17:33:55.371Z,76.40
2018-07-21T17:36:23.941Z,77.20
2018-07-21T17:38:52.557Z,77.50
2018-07-21T17:41:21.129Z,77.90
2018-07-21T17:43:49.694Z,78.30
2018-07-21T17:46:18.260Z,77.90
2018-07-21T17:48:46.814Z,77.20
2018-07-21T17:51:15.461Z,77.60
2018-07-21T17:53:44.049Z,77.90
2018-07-21T17:56:12.621Z,77.60
2018-07-21T17:58:41.231Z,76.40
2018-07-21T18:01:09.849Z,76.70
2018-07-21T18:03:38.414Z,78.30
2018-07-21T18:06:07.459Z,78.80
2018-07-21T18:08:36.042Z,78.70
2018-07-21T18:11:04.596Z,79.40
2018-07-21T18:13:33.145Z,79.50
2018-07-21T18:16:01.878Z,80.10
2018-07-21T18:18:30.463Z,79.40
2018-07-21T18:20:59.026Z,79.80
2018-07-21T18:23:27.617Z,81.30
2018-07-21T18:25:56.150Z,82.80
2018-07-21T18:28:24.742Z,83.40
2018-07-21T18:30:53.366Z,85.50
2018-07-21T18:33:21.935Z,86.70
2018-07-21T18:35:50.488Z,87.00
2018-07-21T18:38:19.371Z,88.10
2018-07-21T18:40:47.953Z,87.80
2018-07-21T18:43:17.655Z,88.80
2018-07-21T18:45:46.278Z,90.20
2018-07-21T18:48:15.044Z,90.20
2018-07-21T18:50:43.527Z,90.90
2018-07-21T18:53:12.207Z,90.50
2018-07-21T18:55:40.714Z,91.10
2018-07-21T18:58:09.273Z,91.40
2018-07-21T19:00:37.802Z,91.60
2018-07-21T19:03:06.311Z,92.20
2018-07-21T19:05:34.804Z,92.20
2018-07-21T19:08:03.458Z,90.90
2018-07-21T19:10:32.186Z,92.20
2018-07-21T19:13:00.699Z,93.00
2018-07-21T19:15:34.610Z,93.30
2018-07-21T19:18:03.155Z,93.00
2018-07-21T19:20:37.491Z,92.70
2018-07-21T19:23:06.090Z,93.30
2018-07-21T19:25:39.985Z,93.80
2018-07-21T19:28:08.508Z,93.90
2018-07-21T19:30:37.018Z,94.60
2018-07-21T19:33:05.675Z,94.20
2018-07-21T19:38:02.523Z,94.00
2018-07-21T19:40:31.055Z,94.00
2018-07-21T19:42:59.681Z,94.30
2018-07-21T19:45:28.185Z,95.00
2018-07-21T19:50:24.999Z,95.70
2018-07-21T19:52:53.517Z,95.30
2018-07-21T19:55:22.089Z,95.60
2018-07-21T19:57:51.346Z,95.40
2018-07-21T20:00:20.507Z,95.30
2018-07-21T20:02:49.121Z,95.60
2018-07-21T20:05:17.717Z,95.50
2018-07-21T20:07:46.203Z,95.40
2018-07-21T20:10:15.296Z,95.20
2018-07-21T20:12:44.422Z,95.20
2018-07-21T20:15:12.906Z,95.40
2018-07-21T20:17:41.472Z,95.40
2018-07-21T20:20:11.021Z,95.90
2018-07-21T20:22:39.618Z,95.60
2018-07-21T20:25:08.214Z,95.90
2018-07-21T20:27:37.391Z,95.80
2018-07-21T20:30:06.466Z,96.10
2018-07-21T20:32:34.989Z,96.80
2018-07-21T20:35:03.595Z,96.40
2018-07-21T20:37:32.183Z,96.50
2018-07-21T20:40:00.832Z,97.10
2018-07-21T20:42:29.897Z,97.10
2018-07-21T20:44:58.462Z,96.80
2018-07-21T20:47:26.990Z,96.80
2018-07-21T20:49:55.635Z,96.60
2018-07-21T20:52:24.179Z,96.40
2018-07-21T20:54:52.739Z,97.20
2018-07-21T20:57:24.419Z,97.20
2018-07-21T20:59:56.332Z,97.50
2018-07-21T21:02:25.109Z,97.20
2018-07-21T21:04:53.642Z,97.40
2018-07-21T21:07:28.037Z,97.20
2018-07-21T21:10:27.070Z,97.20
2018-07-21T21:12:55.818Z,97.60
2018-07-21T21:15:24.452Z,97.80
2018-07-21T21:17:53.212Z,97.60
2018-07-21T21:20:21.794Z,97.80
2018-07-21T21:22:50.421Z,97.80
2018-07-21T21:25:19.039Z,97.90
2018-07-21T21:31:18.223Z,98.00
2018-07-21T21:33:46.762Z,97.50
2018-07-21T21:36:15.351Z,97.60
2018-07-21T21:38:44.143Z,97.60
2018-07-21T21:41:12.704Z,98.00
2018-07-21T21:43:41.220Z,98.10
2018-07-21T21:46:09.781Z,97.30
2018-07-21T21:48:38.414Z,97.70
2018-07-21T21:51:06.942Z,97.60
2018-07-21T21:53:35.510Z,97.80
2018-07-21T21:56:04.095Z,97.70
2018-07-21T21:58:32.659Z,97.90
2018-07-21T22:01:06.678Z,97.80
2018-07-21T22:03:35.750Z,98.10
2018-07-21T22:06:04.797Z,97.90
2018-07-21T22:08:33.918Z,97.80
2018-07-21T22:11:02.899Z,97.80
2018-07-21T22:13:31.626Z,97.70
2018-07-21T22:16:00.608Z,97.70
2018-07-21T22:18:30.257Z,97.50
2018-07-21T22:20:58.766Z,97.30
2018-07-21T22:23:27.383Z,97.30
2018-07-21T22:25:55.914Z,97.30
2018-07-21T22:30:52.731Z,97.70
2018-07-21T22:33:21.239Z,97.70
2018-07-21T22:35:49.896Z,97.90
2018-07-21T22:38:18.479Z,97.80
2018-07-21T22:40:47.063Z,98.30
2018-07-21T22:43:15.725Z,98.20
2018-07-21T22:45:44.342Z,97.90
2018-07-21T22:48:12.897Z,97.90
2018-07-21T22:50:41.466Z,97.80
2018-07-21T22:53:10.110Z,97.90
2018-07-21T22:55:38.618Z,97.80
2018-07-21T22:58:07.167Z,97.80
2018-07-21T23:00:35.854Z,97.40
2018-07-21T23:03:04.466Z,98.30
2018-07-21T23:05:32.971Z,97.80
2018-07-21T23:08:01.529Z,97.80
2018-07-21T23:10:30.140Z,98.10
2018-07-21T23:12:58.781Z,98.90
2018-07-21T23:15:27.325Z,99.20
2018-07-21T23:17:55.893Z,99.10
2018-07-21T23:20:24.605Z,99.10
2018-07-21T23:22:53.167Z,99.00
2018-07-21T23:25:21.694Z,98.80
2018-07-21T23:27:50.220Z,98.30
2018-07-21T23:30:18.781Z,98.10
2018-07-21T23:32:47.303Z,97.80
2018-07-21T23:35:15.845Z,98.10
2018-07-21T23:37:44.414Z,98.10
2018-07-21T23:40:12.938Z,98.60
2018-07-21T23:42:41.499Z,98.90
2018-07-21T23:45:10.092Z,98.90
2018-07-21T23:47:38.622Z,98.90
2018-07-21T23:50:07.447Z,99.20
2018-07-21T23:52:36.003Z,99.60
2018-07-21T23:55:06.580Z,99.80
2018-07-21T23:57:35.185Z,99.20
